• Join FlightAware (Why Join?)
  • Login
  • US Flag 
04:57PM EST


 

Airport Tracker/Info


-or-


 

Live Flight TrackerFlight Track Log ✈ VH-WSF ✈ 03-Jul-2013 ✈ YDBY / DRB - YBAN

Flight Track Log - Related Links

Times and Time Zones

All times are in EDT time to prevent confusion due to time zone crossing. See the VH-WSF flight status page for this flight to view local times or setup timezone preferences in your user account.

Time Position Orientation Groundspeed Altitude Reporting Facility
EDT Latitude Longitude Course Direction KTS MPH feet Rate Location/Type
07:01PM -17.3325 123.8020 360° North  Level Aus ATC (Calculated)
07:02PM -17.3325 123.8020 254° West  Level Aus ATC (Calculated)
07:05PM -17.3453 123.7556 74° East  Level FlightAware Approximate
07:05PM -17.2935 123.9429 360° North  Level Aus ATC (Calculated)
07:05PM -17.2935 123.9429 74° East  Level Aus ATC (Calculated)
07:06PM -17.2812 123.9871 74° East  Level FlightAware Approximate
07:07PM -17.2792 123.9944 74° East  Level FlightAware Approximate
07:08PM -17.2669 124.0386 74° East  Level FlightAware Approximate
07:09PM -17.2547 124.0828 74° East  Level FlightAware Approximate
07:10PM -17.2424 124.1270 74° East  Level FlightAware Approximate
07:11PM -17.2301 124.1712 74° East  Level FlightAware Approximate
07:11PM -17.2152 124.2244 74° East  Level Aus ATC (Calculated)
07:13PM -17.1948 124.2974 74° East  Level FlightAware Approximate
07:14PM -17.1834 124.3384 74° East  Level FlightAware Approximate
07:15PM -17.1719 124.3793 74° East  Level FlightAware Approximate
07:16PM -17.1605 124.4202 74° East  Level FlightAware Approximate
07:17PM -17.1490 124.4612 74° East  Level FlightAware Approximate
07:18PM -17.1376 124.5021 74° East  Level FlightAware Approximate
07:19PM -17.1261 124.5430 74° East  Level FlightAware Approximate
07:20PM -17.1146 124.5839 74° East  Level FlightAware Approximate
07:21PM -17.1031 124.6248 74° East  Level FlightAware Approximate
07:22PM -17.0916 124.6657 74° East  Level FlightAware Approximate
07:23PM -17.0801 124.7066 74° East  Level FlightAware Approximate
07:24PM -17.0686 124.7474 74° East  Level FlightAware Approximate
07:25PM -17.0570 124.7883 74° East  Level FlightAware Approximate
07:26PM -17.0455 124.8292 74° East  Level FlightAware Approximate
07:27PM -17.0340 124.8700 74° East  Level FlightAware Approximate
07:28PM -17.0224 124.9109 74° East  Level FlightAware Approximate
07:29PM -17.0109 124.9518 74° East  Level FlightAware Approximate
07:30PM -16.9993 124.9926 74° East  Level FlightAware Approximate
07:31PM -16.9877 125.0335 73° East  Level FlightAware Approximate
07:32PM -16.9761 125.0743 73° East  Level FlightAware Approximate
07:33PM -16.9645 125.1152 73° East  Level FlightAware Approximate
07:33PM -16.9581 125.1379 132° Southeast  Level Aus ATC (Calculated)
07:33PM -16.9581 125.1379 73° East  Level Aus ATC (Calculated)
07:35PM -16.9358 125.2161 73° East  Level FlightAware Approximate
07:36PM -16.9242 125.2569 73° East  Level FlightAware Approximate
07:37PM -16.9126 125.2978 73° East  Level FlightAware Approximate
07:38PM -16.9009 125.3386 73° East  Level FlightAware Approximate
07:39PM -16.8893 125.3794 73° East  Level FlightAware Approximate
07:40PM -16.8776 125.4202 73° East  Level FlightAware Approximate
07:41PM -16.8660 125.4610 73° East  Level FlightAware Approximate
07:42PM -16.8543 125.5018 73° East  Level FlightAware Approximate
07:43PM -16.8426 125.5426 73° East  Level FlightAware Approximate
07:44PM -16.8309 125.5834 73° East  Level FlightAware Approximate
07:45PM -16.8193 125.6242 73° East  Level FlightAware Approximate
07:46PM -16.8076 125.6649 73° East  Level FlightAware Approximate
07:47PM -16.7958 125.7057 73° East  Level FlightAware Approximate
07:48PM -16.7841 125.7465 73° East  Level FlightAware Approximate
07:49PM -16.7724 125.7872 73° East  Level FlightAware Approximate
07:50PM -16.7607 125.8279 73° East  Level FlightAware Approximate
07:51PM -16.7489 125.8687 73° East  Level FlightAware Approximate
07:52PM -16.7372 125.9094 73° East  Level FlightAware Approximate
07:53PM -16.7372 125.9089 253° West  Level Estimated
07:54PM -16.7372 125.9089 74° East  Level Estimated
07:55PM -16.7372 125.9089 74° East  Level Estimated
07:56PM -16.7372 125.9089 74° East  Level Estimated
07:57PM -16.7372 125.9089 74° East  Level Estimated
07:58PM -16.7372 125.9089 74° East  Level Estimated
07:59PM -16.7372 125.9089 74° East  Level Estimated
08:00PM -16.7372 125.9089 74° East  Level Estimated
08:01PM -16.7372 125.9089 74° East  Level Estimated
08:02PM -16.7372 125.9089 74° East  Level Estimated
08:03PM -16.7372 125.9089 74° East  Level Estimated
08:04PM -16.7372 125.9089 74° East  Level Estimated
08:05PM -16.7372 125.9089 74° East  Level Estimated
08:06PM -16.7372 125.9089 74° East  Level Estimated
08:07PM -16.7372 125.9089 74° East  Level Estimated
08:08PM -16.7372 125.9089 74° East  Level Estimated
08:09PM -16.7372 125.9089 74° East  Level Estimated
08:10PM -16.7372 125.9089 74° East  Level Estimated